sensor_id;sensor_type;location;lat;lon;timestamp;P1;durP1;ratioP1;P2;durP2;ratioP2
55455;SDS011;63021;52.836;6.376;2024-01-15T00:02:13;17.23;;;3.10;;
55455;SDS011;63021;52.836;6.376;2024-01-15T00:04:38;13.25;;;2.95;;
55455;SDS011;63021;52.836;6.376;2024-01-15T00:07:05;9.85;;;2.72;;
55455;SDS011;63021;52.836;6.376;2024-01-15T00:09:33;14.00;;;2.17;;
55455;SDS011;63021;52.836;6.376;2024-01-15T00:11:59;16.20;;;2.42;;
55455;SDS011;63021;52.836;6.376;2024-01-15T00:14:25;14.73;;;2.97;;
55455;SDS011;63021;52.836;6.376;2024-01-15T00:16:51;10.10;;;2.10;;
55455;SDS011;63021;52.836;6.376;2024-01-15T00:19:17;11.48;;;2.38;;
55455;SDS011;63021;52.836;6.376;2024-01-15T00:21:43;13.90;;;2.50;;
55455;SDS011;63021;52.836;6.376;2024-01-15T00:24:09;9.82;;;2.72;;
55455;SDS011;63021;52.836;6.376;2024-01-15T00:26:34;14.07;;;2.17;;
55455;SDS011;63021;52.836;6.376;2024-01-15T00:29:00;8.68;;;2.80;;
55455;SDS011;63021;52.836;6.376;2024-01-15T00:31:25;17.58;;;2.42;;
55455;SDS011;63021;52.836;6.376;2024-01-15T00:33:51;8.40;;;2.50;;
55455;SDS011;63021;52.836;6.376;2024-01-15T00:36:17;13.93;;;2.63;;
55455;SDS011;63021;52.836;6.376;2024-01-15T00:38:43;10.43;;;2.22;;
55455;SDS011;63021;52.836;6.376;2024-01-15T00:41:09;11.75;;;2.40;;
55455;SDS011;63021;52.836;6.376;2024-01-15T00:43:34;7.88;;;2.33;;
55455;SDS011;63021;52.836;6.376;2024-01-15T00:46:03;14.70;;;2.33;;
55455;SDS011;63021;52.836;6.376;2024-01-15T00:48:29;21.25;;;3.50;;
55455;SDS011;63021;52.836;6.376;2024-01-15T00:50:54;12.48;;;2.45;;
55455;SDS011;63021;52.836;6.376;2024-01-15T00:53:20;13.13;;;2.40;;
55455;SDS011;63021;52.836;6.376;2024-01-15T00:55:47;24.73;;;3.50;;
55455;SDS011;63021;52.836;6.376;2024-01-15T00:58:13;13.80;;;2.42;;
55455;SDS011;63021;52.836;6.376;2024-01-15T01:00:38;13.85;;;3.25;;
55455;SDS011;63021;52.836;6.376;2024-01-15T01:03:04;17.35;;;2.25;;
55455;SDS011;63021;52.836;6.376;2024-01-15T01:05:29;8.20;;;2.53;;
55455;SDS011;63021;52.836;6.376;2024-01-15T01:07:54;15.38;;;2.95;;
55455;SDS011;63021;52.836;6.376;2024-01-15T01:10:20;10.95;;;2.70;;
55455;SDS011;63021;52.836;6.376;2024-01-15T01:12:45;9.75;;;2.50;;
55455;SDS011;63021;52.836;6.376;2024-01-15T01:15:10;14.85;;;2.58;;
55455;SDS011;63021;52.836;6.376;2024-01-15T01:17:36;17.40;;;2.65;;
55455;SDS011;63021;52.836;6.376;2024-01-15T01:20:01;13.07;;;2.90;;
55455;SDS011;63021;52.836;6.376;2024-01-15T01:22:29;14.35;;;2.78;;
55455;SDS011;63021;52.836;6.376;2024-01-15T01:24:55;16.38;;;3.53;;
55455;SDS011;63021;52.836;6.376;2024-01-15T01:27:21;9.57;;;2.38;;
55455;SDS011;63021;52.836;6.376;2024-01-15T01:29:47;18.95;;;3.13;;
55455;SDS011;63021;52.836;6.376;2024-01-15T01:32:12;13.90;;;2.58;;
55455;SDS011;63021;52.836;6.376;2024-01-15T01:34:41;14.63;;;2.92;;
55455;SDS011;63021;52.836;6.376;2024-01-15T01:37:09;6.80;;;2.13;;
55455;SDS011;63021;52.836;6.376;2024-01-15T01:39:37;10.27;;;2.13;;
55455;SDS011;63021;52.836;6.376;2024-01-15T01:42:03;10.27;;;2.10;;
55455;SDS011;63021;52.836;6.376;2024-01-15T01:44:28;7.40;;;1.75;;
55455;SDS011;63021;52.836;6.376;2024-01-15T01:46:54;7.47;;;1.90;;
55455;SDS011;63021;52.836;6.376;2024-01-15T01:49:19;7.95;;;2.55;;
55455;SDS011;63021;52.836;6.376;2024-01-15T01:51:45;6.47;;;1.42;;
55455;SDS011;63021;52.836;6.376;2024-01-15T01:54:12;2.28;;;1.30;;
55455;SDS011;63021;52.836;6.376;2024-01-15T01:56:39;9.48;;;1.35;;
55455;SDS011;63021;52.836;6.376;2024-01-15T01:59:06;9.63;;;1.80;;
55455;SDS011;63021;52.836;6.376;2024-01-15T02:01:32;4.22;;;1.45;;
55455;SDS011;63021;52.836;6.376;2024-01-15T02:03:58;7.07;;;1.75;;
55455;SDS011;63021;52.836;6.376;2024-01-15T02:06:23;8.15;;;1.70;;
55455;SDS011;63021;52.836;6.376;2024-01-15T02:08:50;4.72;;;1.40;;
55455;SDS011;63021;52.836;6.376;2024-01-15T02:11:15;5.90;;;1.63;;
55455;SDS011;63021;52.836;6.376;2024-01-15T02:13:40;7.00;;;1.73;;
55455;SDS011;63021;52.836;6.376;2024-01-15T02:16:07;3.90;;;1.42;;
55455;SDS011;63021;52.836;6.376;2024-01-15T02:18:42;7.53;;;1.75;;
55455;SDS011;63021;52.836;6.376;2024-01-15T02:21:08;5.25;;;1.50;;
55455;SDS011;63021;52.836;6.376;2024-01-15T02:23:34;7.45;;;1.70;;
55455;SDS011;63021;52.836;6.376;2024-01-15T02:25:59;8.82;;;2.03;;
55455;SDS011;63021;52.836;6.376;2024-01-15T02:28:25;10.48;;;1.90;;
55455;SDS011;63021;52.836;6.376;2024-01-15T02:30:50;5.70;;;1.85;;
55455;SDS011;63021;52.836;6.376;2024-01-15T02:33:16;6.95;;;2.10;;
55455;SDS011;63021;52.836;6.376;2024-01-15T02:35:41;9.45;;;2.45;;
55455;SDS011;63021;52.836;6.376;2024-01-15T02:38:07;7.05;;;2.22;;
55455;SDS011;63021;52.836;6.376;2024-01-15T02:40:33;5.53;;;1.80;;
55455;SDS011;63021;52.836;6.376;2024-01-15T02:42:59;6.13;;;1.85;;
55455;SDS011;63021;52.836;6.376;2024-01-15T02:45:25;3.55;;;1.45;;
55455;SDS011;63021;52.836;6.376;2024-01-15T02:47:50;7.20;;;1.70;;
55455;SDS011;63021;52.836;6.376;2024-01-15T02:50:16;6.32;;;1.85;;
55455;SDS011;63021;52.836;6.376;2024-01-15T02:52:41;5.45;;;1.75;;
55455;SDS011;63021;52.836;6.376;2024-01-15T02:55:07;8.75;;;2.03;;
55455;SDS011;63021;52.836;6.376;2024-01-15T02:57:33;4.93;;;1.73;;
55455;SDS011;63021;52.836;6.376;2024-01-15T02:59:59;12.95;;;1.80;;
55455;SDS011;63021;52.836;6.376;2024-01-15T03:02:24;9.85;;;1.50;;
55455;SDS011;63021;52.836;6.376;2024-01-15T03:04:50;8.43;;;2.05;;
55455;SDS011;63021;52.836;6.376;2024-01-15T03:07:15;4.60;;;1.83;;
55455;SDS011;63021;52.836;6.376;2024-01-15T03:09:41;11.10;;;1.98;;
55455;SDS011;63021;52.836;6.376;2024-01-15T03:12:07;7.35;;;1.50;;
55455;SDS011;63021;52.836;6.376;2024-01-15T03:14:32;6.93;;;1.38;;
55455;SDS011;63021;52.836;6.376;2024-01-15T03:16:58;6.32;;;1.63;;
55455;SDS011;63021;52.836;6.376;2024-01-15T03:19:23;7.65;;;1.45;;
55455;SDS011;63021;52.836;6.376;2024-01-15T03:21:48;6.57;;;1.90;;
55455;SDS011;63021;52.836;6.376;2024-01-15T03:24:14;8.35;;;1.70;;
55455;SDS011;63021;52.836;6.376;2024-01-15T03:26:39;10.02;;;2.40;;
55455;SDS011;63021;52.836;6.376;2024-01-15T03:29:05;17.13;;;2.08;;
55455;SDS011;63021;52.836;6.376;2024-01-15T03:31:31;9.18;;;1.73;;
55455;SDS011;63021;52.836;6.376;2024-01-15T03:33:56;9.73;;;2.25;;
55455;SDS011;63021;52.836;6.376;2024-01-15T03:36:22;11.70;;;3.63;;
55455;SDS011;63021;52.836;6.376;2024-01-15T03:38:47;12.63;;;1.83;;
55455;SDS011;63021;52.836;6.376;2024-01-15T03:41:13;13.10;;;2.88;;
55455;SDS011;63021;52.836;6.376;2024-01-15T03:43:38;15.75;;;2.10;;
55455;SDS011;63021;52.836;6.376;2024-01-15T03:46:04;8.35;;;1.95;;
55455;SDS011;63021;52.836;6.376;2024-01-15T03:48:30;16.10;;;3.47;;
55455;SDS011;63021;52.836;6.376;2024-01-15T03:50:56;14.70;;;2.97;;
55455;SDS011;63021;52.836;6.376;2024-01-15T03:53:21;14.57;;;2.95;;
55455;SDS011;63021;52.836;6.376;2024-01-15T03:55:47;16.63;;;2.33;;
55455;SDS011;63021;52.836;6.376;2024-01-15T03:58:12;8.43;;;1.90;;
55455;SDS011;63021;52.836;6.376;2024-01-15T04:00:39;13.65;;;3.10;;
55455;SDS011;63021;52.836;6.376;2024-01-15T04:03:05;14.32;;;2.45;;
55455;SDS011;63021;52.836;6.376;2024-01-15T04:05:30;13.80;;;2.20;;
55455;SDS011;63021;52.836;6.376;2024-01-15T04:07:56;11.77;;;1.45;;
55455;SDS011;63021;52.836;6.376;2024-01-15T04:10:21;11.93;;;2.38;;
55455;SDS011;63021;52.836;6.376;2024-01-15T04:12:47;15.88;;;2.80;;
55455;SDS011;63021;52.836;6.376;2024-01-15T04:15:12;13.45;;;2.13;;
55455;SDS011;63021;52.836;6.376;2024-01-15T04:17:38;6.70;;;1.60;;
55455;SDS011;63021;52.836;6.376;2024-01-15T04:20:04;11.75;;;2.35;;
55455;SDS011;63021;52.836;6.376;2024-01-15T04:22:30;8.27;;;1.90;;
55455;SDS011;63021;52.836;6.376;2024-01-15T04:24:55;8.98;;;1.73;;
55455;SDS011;63021;52.836;6.376;2024-01-15T04:27:21;10.02;;;2.17;;
55455;SDS011;63021;52.836;6.376;2024-01-15T04:29:46;12.48;;;2.20;;
55455;SDS011;63021;52.836;6.376;2024-01-15T04:32:11;16.13;;;2.50;;
55455;SDS011;63021;52.836;6.376;2024-01-15T04:34:37;13.45;;;2.05;;
55455;SDS011;63021;52.836;6.376;2024-01-15T04:37:02;14.73;;;2.75;;
55455;SDS011;63021;52.836;6.376;2024-01-15T04:39:28;15.55;;;2.55;;
55455;SDS011;63021;52.836;6.376;2024-01-15T04:41:54;20.98;;;3.13;;
55455;SDS011;63021;52.836;6.376;2024-01-15T04:44:20;26.50;;;4.97;;
55455;SDS011;63021;52.836;6.376;2024-01-15T04:46:45;12.40;;;2.88;;
55455;SDS011;63021;52.836;6.376;2024-01-15T04:49:11;15.20;;;2.72;;
55455;SDS011;63021;52.836;6.376;2024-01-15T04:51:36;12.55;;;3.15;;
55455;SDS011;63021;52.836;6.376;2024-01-15T04:54:02;12.27;;;3.22;;
55455;SDS011;63021;52.836;6.376;2024-01-15T04:56:28;11.05;;;2.75;;
55455;SDS011;63021;52.836;6.376;2024-01-15T04:58:53;9.32;;;2.53;;
55455;SDS011;63021;52.836;6.376;2024-01-15T05:01:19;14.10;;;5.50;;
55455;SDS011;63021;52.836;6.376;2024-01-15T05:03:44;12.20;;;2.30;;
55455;SDS011;63021;52.836;6.376;2024-01-15T05:06:09;8.50;;;1.88;;
55455;SDS011;63021;52.836;6.376;2024-01-15T05:08:35;11.63;;;2.60;;
55455;SDS011;63021;52.836;6.376;2024-01-15T05:11:00;16.55;;;2.30;;
55455;SDS011;63021;52.836;6.376;2024-01-15T05:13:26;15.07;;;3.28;;
55455;SDS011;63021;52.836;6.376;2024-01-15T05:15:51;11.75;;;2.58;;
55455;SDS011;63021;52.836;6.376;2024-01-15T05:18:17;16.00;;;2.22;;
55455;SDS011;63021;52.836;6.376;2024-01-15T05:20:43;9.77;;;2.65;;
55455;SDS011;63021;52.836;6.376;2024-01-15T05:23:08;9.88;;;2.60;;
55455;SDS011;63021;52.836;6.376;2024-01-15T05:25:33;14.40;;;2.50;;
55455;SDS011;63021;52.836;6.376;2024-01-15T05:27:59;8.98;;;2.75;;
55455;SDS011;63021;52.836;6.376;2024-01-15T05:30:25;16.75;;;2.72;;
55455;SDS011;63021;52.836;6.376;2024-01-15T05:32:50;11.25;;;3.15;;
55455;SDS011;63021;52.836;6.376;2024-01-15T05:35:15;10.90;;;2.60;;
55455;SDS011;63021;52.836;6.376;2024-01-15T05:37:42;9.15;;;2.10;;
55455;SDS011;63021;52.836;6.376;2024-01-15T05:40:09;12.07;;;2.75;;
55455;SDS011;63021;52.836;6.376;2024-01-15T05:42:35;11.60;;;3.45;;
55455;SDS011;63021;52.836;6.376;2024-01-15T05:45:01;9.73;;;2.08;;
55455;SDS011;63021;52.836;6.376;2024-01-15T05:47:29;14.18;;;2.63;;
55455;SDS011;63021;52.836;6.376;2024-01-15T05:49:55;17.95;;;3.72;;
55455;SDS011;63021;52.836;6.376;2024-01-15T05:52:21;11.95;;;2.17;;
55455;SDS011;63021;52.836;6.376;2024-01-15T05:54:47;8.73;;;2.40;;
55455;SDS011;63021;52.836;6.376;2024-01-15T05:57:13;7.63;;;2.03;;
55455;SDS011;63021;52.836;6.376;2024-01-15T05:59:38;7.55;;;2.38;;
55455;SDS011;63021;52.836;6.376;2024-01-15T06:02:03;6.65;;;2.60;;
55455;SDS011;63021;52.836;6.376;2024-01-15T06:04:29;10.15;;;2.10;;
55455;SDS011;63021;52.836;6.376;2024-01-15T06:06:54;4.22;;;1.77;;
55455;SDS011;63021;52.836;6.376;2024-01-15T06:09:20;10.38;;;3.92;;
55455;SDS011;63021;52.836;6.376;2024-01-15T06:11:45;13.35;;;2.67;;
55455;SDS011;63021;52.836;6.376;2024-01-15T06:14:11;9.73;;;2.13;;
55455;SDS011;63021;52.836;6.376;2024-01-15T06:16:36;13.63;;;2.80;;
55455;SDS011;63021;52.836;6.376;2024-01-15T06:19:01;11.80;;;2.85;;
55455;SDS011;63021;52.836;6.376;2024-01-15T06:21:27;11.13;;;3.20;;
55455;SDS011;63021;52.836;6.376;2024-01-15T06:23:53;18.08;;;2.65;;
55455;SDS011;63021;52.836;6.376;2024-01-15T06:26:18;8.30;;;2.40;;
55455;SDS011;63021;52.836;6.376;2024-01-15T06:28:44;16.88;;;3.97;;
55455;SDS011;63021;52.836;6.376;2024-01-15T06:31:09;10.85;;;3.05;;
55455;SDS011;63021;52.836;6.376;2024-01-15T06:33:35;13.07;;;2.97;;
55455;SDS011;63021;52.836;6.376;2024-01-15T06:36:00;16.27;;;3.17;;
55455;SDS011;63021;52.836;6.376;2024-01-15T06:38:26;15.90;;;3.28;;
55455;SDS011;63021;52.836;6.376;2024-01-15T06:40:51;13.07;;;3.92;;
55455;SDS011;63021;52.836;6.376;2024-01-15T06:43:17;9.45;;;2.65;;
55455;SDS011;63021;52.836;6.376;2024-01-15T06:45:46;13.07;;;2.20;;
55455;SDS011;63021;52.836;6.376;2024-01-15T06:48:11;13.65;;;2.78;;
55455;SDS011;63021;52.836;6.376;2024-01-15T06:50:39;12.90;;;2.88;;
55455;SDS011;63021;52.836;6.376;2024-01-15T06:53:05;11.40;;;2.10;;
55455;SDS011;63021;52.836;6.376;2024-01-15T06:55:30;10.63;;;2.58;;
55455;SDS011;63021;52.836;6.376;2024-01-15T06:57:56;7.22;;;2.47;;
55455;SDS011;63021;52.836;6.376;2024-01-15T07:00:21;22.35;;;3.05;;
55455;SDS011;63021;52.836;6.376;2024-01-15T07:02:46;15.68;;;2.00;;
55455;SDS011;63021;52.836;6.376;2024-01-15T07:05:12;10.70;;;2.58;;
55455;SDS011;63021;52.836;6.376;2024-01-15T07:07:37;15.90;;;3.22;;
55455;SDS011;63021;52.836;6.376;2024-01-15T07:10:03;13.63;;;2.50;;
55455;SDS011;63021;52.836;6.376;2024-01-15T07:12:29;18.08;;;4.45;;
55455;SDS011;63021;52.836;6.376;2024-01-15T07:14:55;25.05;;;5.72;;
55455;SDS011;63021;52.836;6.376;2024-01-15T07:17:21;11.48;;;3.00;;
55455;SDS011;63021;52.836;6.376;2024-01-15T07:19:47;12.90;;;2.92;;
55455;SDS011;63021;52.836;6.376;2024-01-15T07:22:12;16.15;;;2.78;;
55455;SDS011;63021;52.836;6.376;2024-01-15T07:24:38;14.23;;;2.35;;
55455;SDS011;63021;52.836;6.376;2024-01-15T07:27:03;14.43;;;3.30;;
55455;SDS011;63021;52.836;6.376;2024-01-15T07:29:29;10.68;;;2.95;;
55455;SDS011;63021;52.836;6.376;2024-01-15T07:31:56;7.82;;;2.47;;
55455;SDS011;63021;52.836;6.376;2024-01-15T07:34:21;8.13;;;2.58;;
55455;SDS011;63021;52.836;6.376;2024-01-15T07:36:47;14.18;;;3.13;;
55455;SDS011;63021;52.836;6.376;2024-01-15T07:39:12;15.40;;;3.47;;
55455;SDS011;63021;52.836;6.376;2024-01-15T07:41:38;11.57;;;3.40;;
55455;SDS011;63021;52.836;6.376;2024-01-15T07:44:04;16.55;;;2.80;;
55455;SDS011;63021;52.836;6.376;2024-01-15T07:46:30;14.32;;;4.30;;
55455;SDS011;63021;52.836;6.376;2024-01-15T07:48:56;17.38;;;5.05;;
55455;SDS011;63021;52.836;6.376;2024-01-15T07:51:23;15.30;;;4.75;;
55455;SDS011;63021;52.836;6.376;2024-01-15T07:53:49;15.68;;;4.13;;
55455;SDS011;63021;52.836;6.376;2024-01-15T07:56:15;16.60;;;3.92;;
55455;SDS011;63021;52.836;6.376;2024-01-15T07:58:41;8.60;;;4.07;;
55455;SDS011;63021;52.836;6.376;2024-01-15T08:01:07;10.05;;;3.78;;
55455;SDS011;63021;52.836;6.376;2024-01-15T08:03:32;14.90;;;4.22;;
55455;SDS011;63021;52.836;6.376;2024-01-15T08:05:58;27.38;;;5.13;;
55455;SDS011;63021;52.836;6.376;2024-01-15T08:08:24;13.52;;;3.35;;
55455;SDS011;63021;52.836;6.376;2024-01-15T08:10:51;10.13;;;3.60;;
55455;SDS011;63021;52.836;6.376;2024-01-15T08:13:17;10.70;;;3.45;;
55455;SDS011;63021;52.836;6.376;2024-01-15T08:15:43;13.35;;;2.58;;
55455;SDS011;63021;52.836;6.376;2024-01-15T08:18:08;20.80;;;2.75;;
55455;SDS011;63021;52.836;6.376;2024-01-15T08:20:34;15.43;;;2.72;;
55455;SDS011;63021;52.836;6.376;2024-01-15T08:22:59;13.75;;;2.65;;
55455;SDS011;63021;52.836;6.376;2024-01-15T08:25:25;11.75;;;2.53;;
55455;SDS011;63021;52.836;6.376;2024-01-15T08:27:51;13.02;;;3.00;;
55455;SDS011;63021;52.836;6.376;2024-01-15T08:30:17;14.13;;;2.78;;
55455;SDS011;63021;52.836;6.376;2024-01-15T08:32:44;20.45;;;3.15;;
55455;SDS011;63021;52.836;6.376;2024-01-15T08:35:09;32.25;;;6.47;;
55455;SDS011;63021;52.836;6.376;2024-01-15T08:37:35;15.68;;;2.95;;
55455;SDS011;63021;52.836;6.376;2024-01-15T08:40:01;14.88;;;3.05;;
55455;SDS011;63021;52.836;6.376;2024-01-15T08:42:26;10.05;;;3.25;;
55455;SDS011;63021;52.836;6.376;2024-01-15T08:44:51;13.05;;;2.65;;
55455;SDS011;63021;52.836;6.376;2024-01-15T08:47:17;16.65;;;2.75;;
55455;SDS011;63021;52.836;6.376;2024-01-15T08:49:42;14.25;;;2.22;;
55455;SDS011;63021;52.836;6.376;2024-01-15T08:52:09;9.23;;;2.70;;
55455;SDS011;63021;52.836;6.376;2024-01-15T08:54:34;17.17;;;2.75;;
55455;SDS011;63021;52.836;6.376;2024-01-15T08:57:00;11.38;;;3.13;;
55455;SDS011;63021;52.836;6.376;2024-01-15T08:59:26;15.00;;;2.88;;
55455;SDS011;63021;52.836;6.376;2024-01-15T09:01:51;13.25;;;2.40;;
55455;SDS011;63021;52.836;6.376;2024-01-15T09:04:17;15.80;;;3.03;;
55455;SDS011;63021;52.836;6.376;2024-01-15T09:06:46;17.35;;;2.55;;
55455;SDS011;63021;52.836;6.376;2024-01-15T09:09:12;14.00;;;2.50;;
55455;SDS011;63021;52.836;6.376;2024-01-15T09:11:39;12.07;;;2.30;;
55455;SDS011;63021;52.836;6.376;2024-01-15T09:14:04;15.82;;;3.03;;
55455;SDS011;63021;52.836;6.376;2024-01-15T09:16:29;12.07;;;2.03;;
55455;SDS011;63021;52.836;6.376;2024-01-15T09:18:55;10.57;;;2.30;;
55455;SDS011;63021;52.836;6.376;2024-01-15T09:21:22;14.77;;;2.78;;
55455;SDS011;63021;52.836;6.376;2024-01-15T09:23:48;11.50;;;3.08;;
55455;SDS011;63021;52.836;6.376;2024-01-15T09:26:13;9.00;;;2.42;;
55455;SDS011;63021;52.836;6.376;2024-01-15T09:28:39;12.55;;;2.38;;
55455;SDS011;63021;52.836;6.376;2024-01-15T09:31:04;10.55;;;2.38;;
55455;SDS011;63021;52.836;6.376;2024-01-15T09:33:29;11.25;;;2.85;;
55455;SDS011;63021;52.836;6.376;2024-01-15T09:35:55;8.85;;;2.38;;
55455;SDS011;63021;52.836;6.376;2024-01-15T09:38:20;14.13;;;2.30;;
55455;SDS011;63021;52.836;6.376;2024-01-15T09:40:46;13.57;;;2.20;;
55455;SDS011;63021;52.836;6.376;2024-01-15T09:43:12;8.77;;;2.03;;
55455;SDS011;63021;52.836;6.376;2024-01-15T09:45:38;6.63;;;1.88;;
55455;SDS011;63021;52.836;6.376;2024-01-15T09:48:04;17.98;;;2.30;;
55455;SDS011;63021;52.836;6.376;2024-01-15T09:50:30;11.80;;;2.25;;
55455;SDS011;63021;52.836;6.376;2024-01-15T09:52:56;7.47;;;1.60;;
55455;SDS011;63021;52.836;6.376;2024-01-15T09:55:22;7.07;;;1.83;;
55455;SDS011;63021;52.836;6.376;2024-01-15T09:57:48;15.32;;;1.90;;
55455;SDS011;63021;52.836;6.376;2024-01-15T10:00:17;13.98;;;2.88;;
55455;SDS011;63021;52.836;6.376;2024-01-15T10:02:43;11.88;;;2.05;;
55455;SDS011;63021;52.836;6.376;2024-01-15T10:05:09;9.27;;;2.70;;
55455;SDS011;63021;52.836;6.376;2024-01-15T10:07:35;9.77;;;1.92;;
55455;SDS011;63021;52.836;6.376;2024-01-15T10:10:02;12.00;;;1.88;;
55455;SDS011;63021;52.836;6.376;2024-01-15T10:12:32;9.48;;;2.65;;
55455;SDS011;63021;52.836;6.376;2024-01-15T10:14:58;5.68;;;2.78;;
55455;SDS011;63021;52.836;6.376;2024-01-15T10:17:23;6.45;;;1.65;;
55455;SDS011;63021;52.836;6.376;2024-01-15T10:19:50;4.13;;;1.30;;
55455;SDS011;63021;52.836;6.376;2024-01-15T10:22:16;4.15;;;1.42;;
55455;SDS011;63021;52.836;6.376;2024-01-15T10:24:42;6.95;;;2.08;;
55455;SDS011;63021;52.836;6.376;2024-01-15T10:27:08;9.57;;;2.45;;
55455;SDS011;63021;52.836;6.376;2024-01-15T10:29:34;13.75;;;2.08;;
55455;SDS011;63021;52.836;6.376;2024-01-15T10:32:00;6.93;;;1.85;;
55455;SDS011;63021;52.836;6.376;2024-01-15T10:34:26;8.20;;;1.50;;
55455;SDS011;63021;52.836;6.376;2024-01-15T10:36:51;12.30;;;2.03;;
55455;SDS011;63021;52.836;6.376;2024-01-15T10:39:26;6.40;;;1.73;;
55455;SDS011;63021;52.836;6.376;2024-01-15T10:41:52;5.88;;;1.75;;
55455;SDS011;63021;52.836;6.376;2024-01-15T10:44:17;7.30;;;1.58;;
55455;SDS011;63021;52.836;6.376;2024-01-15T10:46:44;9.18;;;1.95;;
55455;SDS011;63021;52.836;6.376;2024-01-15T10:49:13;7.85;;;1.35;;
55455;SDS011;63021;52.836;6.376;2024-01-15T10:51:39;5.70;;;1.27;;
55455;SDS011;63021;52.836;6.376;2024-01-15T10:54:06;12.75;;;1.58;;
55455;SDS011;63021;52.836;6.376;2024-01-15T10:56:36;5.13;;;1.20;;
55455;SDS011;63021;52.836;6.376;2024-01-15T10:59:02;8.05;;;1.85;;
55455;SDS011;63021;52.836;6.376;2024-01-15T11:01:29;7.88;;;2.75;;
55455;SDS011;63021;52.836;6.376;2024-01-15T11:03:56;5.10;;;1.10;;
55455;SDS011;63021;52.836;6.376;2024-01-15T11:06:24;4.88;;;1.55;;
55455;SDS011;63021;52.836;6.376;2024-01-15T11:08:50;8.95;;;1.65;;
55455;SDS011;63021;52.836;6.376;2024-01-15T11:11:18;3.60;;;1.30;;
55455;SDS011;63021;52.836;6.376;2024-01-15T11:13:43;3.78;;;1.50;;
55455;SDS011;63021;52.836;6.376;2024-01-15T11:16:13;3.22;;;1.20;;
55455;SDS011;63021;52.836;6.376;2024-01-15T11:21:24;4.50;;;1.20;;
55455;SDS011;63021;52.836;6.376;2024-01-15T11:24:00;3.33;;;1.10;;
55455;SDS011;63021;52.836;6.376;2024-01-15T11:26:30;4.32;;;1.27;;
55455;SDS011;63021;52.836;6.376;2024-01-15T11:29:06;1.45;;;1.35;;
55455;SDS011;63021;52.836;6.376;2024-01-15T11:34:05;4.47;;;1.75;;
55455;SDS011;63021;52.836;6.376;2024-01-15T11:41:58;4.68;;;1.60;;
55455;SDS011;63021;52.836;6.376;2024-01-15T11:44:24;6.28;;;1.90;;
55455;SDS011;63021;52.836;6.376;2024-01-15T11:52:32;8.90;;;2.00;;
55455;SDS011;63021;52.836;6.376;2024-01-15T12:00:11;5.15;;;1.45;;
55455;SDS011;63021;52.836;6.376;2024-01-15T12:02:38;4.55;;;1.90;;
55455;SDS011;63021;52.836;6.376;2024-01-15T12:05:06;9.93;;;2.10;;
55455;SDS011;63021;52.836;6.376;2024-01-15T12:07:32;6.25;;;1.55;;
55455;SDS011;63021;52.836;6.376;2024-01-15T12:09:58;7.90;;;1.40;;
55455;SDS011;63021;52.836;6.376;2024-01-15T12:12:35;4.93;;;1.90;;
55455;SDS011;63021;52.836;6.376;2024-01-15T12:15:21;2.67;;;1.10;;
55455;SDS011;63021;52.836;6.376;2024-01-15T12:17:47;7.57;;;1.70;;
55455;SDS011;63021;52.836;6.376;2024-01-15T12:20:13;4.45;;;1.52;;
55455;SDS011;63021;52.836;6.376;2024-01-15T12:22:39;10.05;;;1.63;;
55455;SDS011;63021;52.836;6.376;2024-01-15T12:25:04;1.77;;;1.17;;
55455;SDS011;63021;52.836;6.376;2024-01-15T12:27:30;4.35;;;1.17;;
55455;SDS011;63021;52.836;6.376;2024-01-15T12:29:57;4.80;;;1.83;;
55455;SDS011;63021;52.836;6.376;2024-01-15T12:32:23;1.48;;;0.90;;
55455;SDS011;63021;52.836;6.376;2024-01-15T12:34:50;5.40;;;1.48;;
55455;SDS011;63021;52.836;6.376;2024-01-15T12:37:18;1.77;;;1.20;;
55455;SDS011;63021;52.836;6.376;2024-01-15T12:39:44;7.95;;;1.42;;
55455;SDS011;63021;52.836;6.376;2024-01-15T12:42:10;4.22;;;1.00;;
55455;SDS011;63021;52.836;6.376;2024-01-15T12:44:35;10.90;;;1.63;;
55455;SDS011;63021;52.836;6.376;2024-01-15T12:47:03;6.20;;;1.38;;
55455;SDS011;63021;52.836;6.376;2024-01-15T12:49:29;5.47;;;1.38;;
55455;SDS011;63021;52.836;6.376;2024-01-15T12:51:58;3.92;;;1.30;;
55455;SDS011;63021;52.836;6.376;2024-01-15T12:54:24;6.35;;;1.70;;
55455;SDS011;63021;52.836;6.376;2024-01-15T12:56:51;7.80;;;1.73;;
55455;SDS011;63021;52.836;6.376;2024-01-15T12:59:17;3.17;;;1.25;;
55455;SDS011;63021;52.836;6.376;2024-01-15T13:01:43;3.90;;;1.55;;
55455;SDS011;63021;52.836;6.376;2024-01-15T13:04:09;6.00;;;1.88;;
55455;SDS011;63021;52.836;6.376;2024-01-15T13:06:35;4.18;;;1.67;;
55455;SDS011;63021;52.836;6.376;2024-01-15T13:09:01;5.40;;;2.40;;
55455;SDS011;63021;52.836;6.376;2024-01-15T13:11:28;7.53;;;1.80;;
55455;SDS011;63021;52.836;6.376;2024-01-15T13:13:54;4.53;;;1.52;;
55455;SDS011;63021;52.836;6.376;2024-01-15T13:16:19;12.00;;;1.70;;
55455;SDS011;63021;52.836;6.376;2024-01-15T13:18:46;13.02;;;2.30;;
55455;SDS011;63021;52.836;6.376;2024-01-15T13:21:11;5.32;;;1.52;;
55455;SDS011;63021;52.836;6.376;2024-01-15T13:23:38;5.63;;;2.20;;
55455;SDS011;63021;52.836;6.376;2024-01-15T13:26:03;5.60;;;1.75;;
55455;SDS011;63021;52.836;6.376;2024-01-15T13:28:30;7.90;;;1.98;;
55455;SDS011;63021;52.836;6.376;2024-01-15T13:30:55;9.10;;;2.72;;
55455;SDS011;63021;52.836;6.376;2024-01-15T13:33:21;6.20;;;2.75;;
55455;SDS011;63021;52.836;6.376;2024-01-15T13:35:46;7.93;;;2.47;;
55455;SDS011;63021;52.836;6.376;2024-01-15T13:38:14;7.72;;;1.90;;
55455;SDS011;63021;52.836;6.376;2024-01-15T13:40:40;10.15;;;2.50;;
55455;SDS011;63021;52.836;6.376;2024-01-15T13:43:06;9.82;;;2.13;;
55455;SDS011;63021;52.836;6.376;2024-01-15T13:45:33;5.40;;;1.67;;
55455;SDS011;63021;52.836;6.376;2024-01-15T13:47:59;12.30;;;2.25;;
55455;SDS011;63021;52.836;6.376;2024-01-15T13:50:24;9.68;;;2.58;;
55455;SDS011;63021;52.836;6.376;2024-01-15T13:52:50;6.88;;;1.85;;
55455;SDS011;63021;52.836;6.376;2024-01-15T13:55:15;13.43;;;3.00;;
55455;SDS011;63021;52.836;6.376;2024-01-15T13:57:41;9.50;;;2.28;;
55455;SDS011;63021;52.836;6.376;2024-01-15T14:00:07;13.52;;;2.90;;
55455;SDS011;63021;52.836;6.376;2024-01-15T14:02:36;9.65;;;1.85;;
55455;SDS011;63021;52.836;6.376;2024-01-15T14:05:01;10.57;;;2.40;;
55455;SDS011;63021;52.836;6.376;2024-01-15T14:07:27;8.35;;;2.60;;
55455;SDS011;63021;52.836;6.376;2024-01-15T14:09:52;12.13;;;2.75;;
55455;SDS011;63021;52.836;6.376;2024-01-15T14:12:18;9.48;;;2.53;;
55455;SDS011;63021;52.836;6.376;2024-01-15T14:14:43;11.55;;;2.38;;
55455;SDS011;63021;52.836;6.376;2024-01-15T14:17:08;10.75;;;2.70;;
55455;SDS011;63021;52.836;6.376;2024-01-15T14:19:34;12.75;;;3.03;;
55455;SDS011;63021;52.836;6.376;2024-01-15T14:21:59;8.48;;;2.08;;
55455;SDS011;63021;52.836;6.376;2024-01-15T14:24:25;9.88;;;2.45;;
55455;SDS011;63021;52.836;6.376;2024-01-15T14:26:50;5.25;;;1.52;;
55455;SDS011;63021;52.836;6.376;2024-01-15T14:29:15;11.85;;;2.17;;
55455;SDS011;63021;52.836;6.376;2024-01-15T14:31:41;7.03;;;2.40;;
55455;SDS011;63021;52.836;6.376;2024-01-15T14:34:06;6.10;;;1.70;;
55455;SDS011;63021;52.836;6.376;2024-01-15T14:36:32;10.90;;;2.38;;
55455;SDS011;63021;52.836;6.376;2024-01-15T14:38:58;10.95;;;2.80;;
55455;SDS011;63021;52.836;6.376;2024-01-15T14:41:23;12.50;;;2.33;;
55455;SDS011;63021;52.836;6.376;2024-01-15T14:43:49;18.92;;;2.40;;
55455;SDS011;63021;52.836;6.376;2024-01-15T14:46:14;9.48;;;2.75;;
55455;SDS011;63021;52.836;6.376;2024-01-15T14:48:40;21.08;;;2.70;;
55455;SDS011;63021;52.836;6.376;2024-01-15T14:51:05;15.50;;;2.50;;
55455;SDS011;63021;52.836;6.376;2024-01-15T14:53:31;14.63;;;2.92;;
55455;SDS011;63021;52.836;6.376;2024-01-15T14:55:57;10.35;;;3.25;;